createdAt,value
2019-02-14T00:02:42.740Z,23.00
2019-02-14T00:05:37.157Z,23.00
2019-02-14T00:08:31.461Z,23.00
2019-02-14T00:11:26.005Z,23.00
2019-02-14T00:14:20.383Z,23.00
2019-02-14T00:17:14.616Z,23.00
2019-02-14T00:20:10.538Z,23.00
2019-02-14T00:23:04.916Z,22.90
2019-02-14T00:25:59.385Z,22.90
2019-02-14T00:28:53.576Z,22.90
2019-02-14T00:31:48.029Z,22.90
2019-02-14T00:34:42.331Z,22.90
2019-02-14T00:37:36.700Z,22.90
2019-02-14T00:40:30.770Z,22.90
2019-02-14T00:43:24.790Z,22.90
2019-02-14T00:46:19.357Z,22.90
2019-02-14T00:49:13.507Z,22.90
2019-02-14T00:52:07.500Z,22.90
2019-02-14T00:55:01.681Z,22.90
2019-02-14T00:57:57.295Z,22.80
2019-02-14T01:00:51.727Z,22.80
2019-02-14T01:03:46.171Z,22.80
2019-02-14T01:06:40.425Z,22.80
2019-02-14T01:09:34.691Z,22.80
2019-02-14T01:12:28.667Z,22.80
2019-02-14T01:15:26.824Z,22.80
2019-02-14T01:18:22.862Z,22.80
2019-02-14T01:21:18.044Z,22.80
2019-02-14T01:24:13.419Z,22.80
2019-02-14T01:27:08.141Z,22.80
2019-02-14T01:30:03.356Z,22.80
2019-02-14T01:32:58.303Z,22.80
2019-02-14T01:35:52.609Z,22.80
2019-02-14T01:38:46.916Z,22.80
2019-02-14T01:41:41.486Z,22.80
2019-02-14T01:44:35.803Z,22.80
2019-02-14T01:47:30.630Z,22.80
2019-02-14T01:50:25.182Z,22.80
2019-02-14T01:53:19.176Z,22.80
2019-02-14T01:56:13.601Z,22.80
2019-02-14T01:59:07.870Z,22.80
2019-02-14T02:02:03.454Z,22.80
2019-02-14T02:04:57.910Z,22.80
2019-02-14T02:07:53.172Z,22.80
2019-02-14T02:10:47.391Z,22.80
2019-02-14T02:13:41.882Z,22.80
2019-02-14T02:16:36.017Z,22.80
2019-02-14T02:19:30.483Z,22.80
2019-02-14T02:22:24.814Z,22.80
2019-02-14T02:25:19.039Z,22.80
2019-02-14T02:28:13.556Z,22.80
2019-02-14T02:31:07.999Z,22.80
2019-02-14T02:34:02.991Z,22.80
2019-02-14T02:36:57.609Z,22.80
2019-02-14T02:39:50.462Z,22.80
2019-02-14T02:42:45.152Z,22.80
2019-02-14T02:45:39.524Z,22.80
2019-02-14T02:48:33.743Z,22.80
2019-02-14T02:51:28.477Z,22.80
2019-02-14T02:54:22.641Z,22.80
2019-02-14T02:57:17.264Z,22.80
2019-02-14T03:00:16.075Z,22.80
2019-02-14T03:03:10.440Z,22.80
2019-02-14T03:06:10.541Z,22.80
2019-02-14T03:09:02.039Z,22.80
2019-02-14T03:11:57.836Z,22.80
2019-02-14T03:14:52.457Z,22.90
2019-02-14T03:17:47.211Z,22.90
2019-02-14T03:20:41.431Z,22.90
2019-02-14T03:23:35.817Z,22.90
2019-02-14T03:26:30.060Z,22.90
2019-02-14T03:29:25.237Z,22.80
2019-02-14T03:32:20.713Z,22.90
2019-02-14T03:35:14.818Z,22.90
2019-02-14T03:38:08.980Z,22.90
2019-02-14T03:41:03.989Z,22.90
2019-02-14T03:43:58.117Z,22.90
2019-02-14T03:46:56.388Z,22.90
2019-02-14T03:49:50.934Z,22.90
2019-02-14T03:52:45.573Z,22.90
2019-02-14T03:55:39.844Z,22.90
2019-02-14T03:58:34.634Z,22.90
2019-02-14T04:01:28.811Z,22.90
2019-02-14T04:04:23.010Z,22.90
2019-02-14T04:07:17.064Z,22.90
2019-02-14T04:10:13.394Z,22.90
2019-02-14T04:13:07.704Z,22.90
2019-02-14T04:16:04.539Z,22.90
2019-02-14T04:18:58.993Z,22.90
2019-02-14T04:21:55.007Z,23.00
2019-02-14T04:24:51.579Z,23.00
2019-02-14T04:27:45.985Z,23.00
2019-02-14T04:30:42.479Z,23.00
2019-02-14T04:33:36.584Z,23.00
2019-02-14T04:36:36.004Z,23.00
2019-02-14T04:39:27.258Z,23.00
2019-02-14T04:42:22.328Z,23.00
2019-02-14T04:45:17.463Z,23.00
2019-02-14T04:48:14.935Z,23.10
2019-02-14T04:51:15.882Z,23.10
2019-02-14T04:54:10.662Z,23.10
2019-02-14T04:57:05.636Z,23.10
2019-02-14T05:00:01.878Z,23.10
2019-02-14T05:02:52.706Z,23.10
2019-02-14T05:06:29.776Z,23.10
2019-02-14T05:08:52.184Z,23.20
2019-02-14T05:11:51.990Z,23.20
2019-02-14T05:14:46.977Z,23.20
2019-02-14T05:17:50.150Z,23.20
2019-02-14T05:20:48.079Z,23.20
2019-02-14T05:23:50.607Z,23.20
2019-02-14T05:26:51.217Z,23.20
2019-02-14T05:29:47.439Z,23.20
2019-02-14T05:32:50.643Z,23.20
2019-02-14T05:36:42.788Z,23.20
2019-02-14T05:39:42.583Z,23.20
2019-02-14T05:43:25.734Z,23.20
2019-02-14T05:46:21.950Z,23.20
2019-02-14T05:49:24.012Z,23.20
2019-02-14T05:52:21.289Z,23.20
2019-02-14T05:55:19.676Z,23.20
2019-02-14T05:58:16.458Z,23.30
2019-02-14T06:01:17.238Z,23.30
2019-02-14T06:04:20.557Z,23.30
2019-02-14T06:07:18.797Z,23.30
2019-02-14T06:10:36.106Z,23.30
2019-02-14T06:13:36.367Z,23.30
2019-02-14T06:17:13.582Z,23.30
2019-02-14T06:20:12.026Z,23.30
2019-02-14T06:23:09.506Z,23.40
2019-02-14T06:40:04.228Z,23.50
2019-02-14T06:43:34.671Z,23.50
2019-02-14T06:47:05.585Z,23.50
2019-02-14T06:53:30.816Z,23.60
2019-02-14T07:00:37.941Z,23.60
2019-02-14T07:03:39.121Z,23.60
2019-02-14T07:09:41.270Z,23.70
2019-02-14T07:12:46.573Z,23.70
2019-02-14T07:15:40.693Z,23.70
2019-02-14T07:18:58.124Z,23.70
2019-02-14T07:22:27.016Z,23.70
2019-02-14T07:26:20.919Z,23.70
2019-02-14T07:28:52.659Z,23.70
2019-02-14T07:32:04.333Z,23.70
2019-02-14T07:36:08.645Z,23.70
2019-02-14T07:39:27.572Z,23.80
2019-02-14T07:42:38.086Z,23.70
2019-02-14T07:49:13.037Z,23.70
2019-02-14T07:52:12.142Z,23.80
2019-02-14T07:55:19.980Z,23.80
2019-02-14T08:05:25.097Z,23.80
2019-02-14T08:08:26.265Z,23.70
2019-02-14T08:11:51.825Z,23.80
2019-02-14T08:14:46.866Z,23.80
2019-02-14T08:17:48.017Z,23.80
2019-02-14T08:20:43.610Z,23.80
2019-02-14T08:23:39.394Z,23.80
2019-02-14T08:26:34.802Z,23.80
2019-02-14T08:29:31.175Z,23.80
2019-02-14T08:32:59.578Z,23.80
2019-02-14T08:35:54.814Z,23.90
2019-02-14T08:38:50.352Z,23.80
2019-02-14T08:41:47.713Z,23.80
2019-02-14T08:44:45.011Z,23.80
2019-02-14T08:47:41.670Z,23.80
2019-02-14T08:50:56.201Z,23.80
2019-02-14T09:00:11.307Z,23.80
2019-02-14T09:03:30.572Z,23.90
2019-02-14T09:06:35.598Z,23.90
2019-02-14T09:10:27.710Z,23.90
2019-02-14T09:16:49.425Z,24.00
2019-02-14T09:26:52.932Z,24.00
2019-02-14T09:30:08.985Z,24.00
2019-02-14T09:33:14.634Z,24.00
2019-02-14T09:36:12.435Z,24.00
2019-02-14T09:39:07.550Z,24.00
2019-02-14T09:42:08.214Z,24.00
2019-02-14T09:45:03.095Z,24.00
2019-02-14T09:48:08.747Z,24.00
2019-02-14T09:51:08.616Z,24.00
2019-02-14T09:54:03.411Z,24.00
2019-02-14T09:56:52.123Z,24.00
2019-02-14T10:05:20.850Z,24.00
2019-02-14T10:08:50.450Z,23.90
2019-02-14T10:12:44.950Z,23.90
2019-02-14T10:16:10.165Z,23.90
2019-02-14T10:19:28.787Z,23.90
2019-02-14T10:22:30.767Z,24.00
2019-02-14T10:25:29.383Z,23.90
2019-02-14T10:28:24.042Z,23.90
2019-02-14T10:31:19.329Z,23.90
2019-02-14T10:34:15.446Z,23.90
2019-02-14T10:37:24.335Z,23.90
2019-02-14T10:40:25.732Z,23.90
2019-02-14T10:44:06.059Z,23.90
2019-02-14T10:47:07.664Z,23.90
2019-02-14T10:50:05.094Z,23.90
2019-02-14T10:53:03.132Z,23.90
2019-02-14T10:56:10.550Z,23.90
2019-02-14T10:59:08.804Z,23.90
2019-02-14T11:02:07.530Z,23.90
2019-02-14T11:05:41.646Z,23.90
2019-02-14T11:08:40.420Z,23.90
2019-02-14T11:17:05.825Z,23.90
2019-02-14T11:19:20.789Z,23.90
2019-02-14T11:23:11.665Z,23.80
2019-02-14T11:26:34.188Z,23.90
2019-02-14T11:37:36.363Z,23.90
2019-02-14T11:40:39.707Z,23.90
2019-02-14T11:44:39.583Z,23.90
2019-02-14T11:47:51.811Z,23.90
2019-02-14T11:51:07.079Z,23.90
2019-02-14T11:54:42.746Z,23.90
2019-02-14T11:57:46.956Z,24.00
2019-02-14T12:00:44.757Z,24.00
2019-02-14T12:03:49.720Z,24.00
2019-02-14T12:06:47.517Z,24.00
2019-02-14T12:09:45.407Z,24.00
2019-02-14T12:12:40.172Z,24.00
2019-02-14T12:15:34.716Z,23.90
2019-02-14T12:18:30.556Z,24.00
2019-02-14T12:21:25.613Z,24.00
2019-02-14T12:24:35.362Z,23.90
2019-02-14T12:32:09.640Z,24.00
2019-02-14T12:38:09.561Z,24.00
2019-02-14T12:41:12.654Z,23.90
2019-02-14T12:47:49.955Z,23.90
2019-02-14T12:50:46.297Z,23.90
2019-02-14T12:53:58.369Z,23.90
2019-02-14T12:56:56.251Z,23.90
2019-02-14T13:00:14.082Z,23.90
2019-02-14T13:06:01.956Z,24.00
2019-02-14T13:28:09.366Z,23.90
2019-02-14T13:33:58.623Z,23.90
2019-02-14T13:37:01.290Z,23.90
2019-02-14T13:40:03.675Z,24.00
2019-02-14T13:42:52.188Z,23.90
2019-02-14T13:45:47.087Z,23.90
2019-02-14T13:48:41.362Z,23.90
2019-02-14T13:51:35.812Z,23.90
2019-02-14T13:54:30.249Z,23.90
2019-02-14T13:57:25.082Z,24.00
2019-02-14T14:00:30.326Z,24.00
2019-02-14T14:03:27.155Z,23.90
2019-02-14T14:06:21.239Z,24.00
2019-02-14T14:09:16.344Z,24.00
2019-02-14T14:12:11.202Z,24.00
2019-02-14T14:15:05.516Z,24.00
2019-02-14T14:18:00.316Z,24.00
2019-02-14T14:20:55.440Z,24.00
2019-02-14T14:23:53.085Z,24.00
2019-02-14T14:29:58.380Z,24.00
2019-02-14T14:33:21.278Z,24.00
2019-02-14T14:36:46.532Z,24.00
2019-02-14T14:40:07.651Z,24.00
2019-02-14T14:43:48.071Z,24.00
2019-02-14T14:47:25.294Z,24.00
2019-02-14T14:50:33.810Z,24.00
2019-02-14T14:53:28.658Z,24.00
2019-02-14T14:56:48.540Z,24.00
2019-02-14T14:59:43.405Z,24.00
2019-02-14T15:02:38.118Z,24.00
2019-02-14T15:05:32.708Z,24.00
2019-02-14T15:08:26.934Z,24.00
2019-02-14T15:11:22.870Z,24.00
2019-02-14T15:14:17.311Z,24.00
2019-02-14T15:17:12.203Z,24.00
2019-02-14T15:20:06.492Z,24.00
2019-02-14T15:23:02.255Z,24.00
2019-02-14T15:25:56.534Z,24.00
2019-02-14T15:28:51.740Z,24.00
2019-02-14T15:34:37.090Z,24.00
2019-02-14T15:40:21.870Z,24.00
2019-02-14T15:43:16.237Z,24.00
2019-02-14T15:46:10.730Z,24.00
2019-02-14T15:49:06.952Z,24.00
2019-02-14T15:52:03.343Z,24.00
2019-02-14T15:54:58.136Z,24.00
2019-02-14T15:57:53.470Z,24.00
2019-02-14T16:00:49.423Z,24.00
2019-02-14T16:03:44.170Z,24.00
2019-02-14T16:06:42.503Z,24.00
2019-02-14T16:09:48.746Z,24.00
2019-02-14T16:12:43.524Z,24.00
2019-02-14T16:15:59.394Z,24.00
2019-02-14T16:18:56.713Z,24.00
2019-02-14T16:21:52.096Z,24.00
2019-02-14T16:24:47.233Z,24.00
2019-02-14T16:27:42.035Z,24.00
2019-02-14T16:30:36.592Z,24.00
2019-02-14T16:33:32.238Z,24.00
2019-02-14T16:36:26.578Z,24.00
2019-02-14T16:39:22.957Z,24.00
2019-02-14T16:42:17.542Z,24.00
2019-02-14T16:45:12.349Z,24.00
2019-02-14T16:48:07.357Z,24.00
2019-02-14T16:51:02.252Z,24.00
2019-02-14T16:54:02.783Z,24.00
2019-02-14T16:56:57.348Z,24.00
2019-02-14T16:59:54.919Z,24.00
2019-02-14T17:02:49.774Z,24.00
2019-02-14T17:05:48.343Z,24.00
2019-02-14T17:08:44.569Z,24.00
2019-02-14T17:14:48.403Z,24.00
2019-02-14T17:17:44.988Z,24.00
2019-02-14T17:20:45.486Z,24.00
2019-02-14T17:28:01.999Z,24.00
2019-02-14T17:30:57.556Z,24.00
2019-02-14T17:33:51.715Z,24.00
2019-02-14T17:36:47.420Z,24.00
2019-02-14T17:39:41.851Z,24.00
2019-02-14T17:42:46.642Z,24.00
2019-02-14T17:45:51.403Z,24.00
2019-02-14T17:49:06.177Z,24.00
2019-02-14T17:52:00.836Z,24.00
2019-02-14T17:55:13.953Z,24.00
2019-02-14T17:57:59.968Z,24.00
2019-02-14T18:00:54.414Z,24.00
2019-02-14T18:03:48.842Z,24.00
2019-02-14T18:06:43.068Z,24.00
2019-02-14T18:09:31.732Z,24.00
2019-02-14T18:12:26.323Z,24.00
2019-02-14T18:15:20.920Z,24.00
2019-02-14T18:18:15.397Z,24.00
2019-02-14T18:21:25.950Z,24.00
2019-02-14T18:24:20.671Z,24.00
2019-02-14T18:27:15.246Z,24.00
2019-02-14T18:30:10.677Z,24.00
2019-02-14T18:33:05.324Z,24.00
2019-02-14T18:35:59.557Z,24.00
2019-02-14T18:38:53.923Z,24.00
2019-02-14T18:41:48.769Z,24.00
2019-02-14T18:44:43.197Z,24.00
2019-02-14T18:47:39.975Z,24.00
2019-02-14T18:50:36.218Z,24.00
2019-02-14T18:53:30.775Z,24.00
2019-02-14T18:56:25.323Z,24.00
2019-02-14T18:59:27.752Z,24.00
2019-02-14T19:02:26.879Z,24.00
2019-02-14T19:05:22.022Z,24.00
2019-02-14T19:08:16.530Z,24.00
2019-02-14T19:11:15.284Z,24.00
2019-02-14T19:14:09.107Z,24.00
2019-02-14T19:17:03.533Z,24.00
2019-02-14T19:19:58.391Z,24.00
2019-02-14T19:22:53.196Z,24.00
2019-02-14T19:25:48.160Z,24.00
2019-02-14T19:28:55.354Z,24.00
2019-02-14T19:31:50.471Z,24.00
2019-02-14T19:34:45.451Z,24.00
2019-02-14T19:37:41.324Z,24.00
2019-02-14T19:40:37.281Z,24.00
2019-02-14T19:43:32.178Z,24.00
2019-02-14T19:46:20.919Z,24.00
2019-02-14T19:49:16.774Z,24.00
2019-02-14T19:52:11.975Z,24.00
2019-02-14T19:55:11.787Z,24.00
2019-02-14T19:58:07.916Z,24.00
2019-02-14T20:01:02.771Z,24.00
2019-02-14T20:04:00.850Z,24.00
2019-02-14T20:07:05.152Z,24.00
2019-02-14T20:10:02.029Z,24.00
2019-02-14T20:13:04.094Z,24.00
2019-02-14T20:16:01.197Z,24.00
2019-02-14T20:18:55.983Z,24.00
2019-02-14T20:21:50.840Z,24.00
2019-02-14T20:24:48.050Z,23.90
2019-02-14T20:27:42.551Z,24.00
2019-02-14T20:30:38.428Z,24.00
2019-02-14T20:33:36.948Z,24.00
2019-02-14T20:36:31.545Z,24.00
2019-02-14T20:39:26.323Z,23.90
2019-02-14T20:42:22.639Z,24.00
2019-02-14T20:45:17.404Z,24.00
2019-02-14T20:48:12.219Z,24.00
2019-02-14T20:51:06.665Z,23.90
2019-02-14T20:54:02.181Z,24.00
2019-02-14T20:56:59.906Z,24.00
2019-02-14T20:59:56.614Z,24.00
2019-02-14T21:02:52.628Z,23.90
2019-02-14T21:05:49.236Z,24.00
2019-02-14T21:08:48.625Z,24.00
2019-02-14T21:11:42.983Z,24.00
2019-02-14T21:14:40.302Z,24.00
2019-02-14T21:17:37.085Z,24.10
2019-02-14T21:20:31.483Z,24.10
2019-02-14T21:23:27.345Z,24.10
2019-02-14T21:26:26.865Z,24.10
2019-02-14T21:29:21.582Z,24.10
2019-02-14T21:32:16.303Z,24.10
2019-02-14T21:35:10.774Z,24.10
2019-02-14T21:38:12.654Z,24.10
2019-02-14T21:41:07.144Z,24.10
2019-02-14T21:44:04.148Z,24.10
2019-02-14T21:47:05.229Z,24.00
2019-02-14T21:49:58.734Z,24.10
2019-02-14T21:52:53.168Z,24.10
2019-02-14T21:55:52.780Z,24.00
2019-02-14T21:58:47.237Z,24.00
2019-02-14T22:01:41.559Z,24.00
2019-02-14T22:04:36.947Z,24.10
2019-02-14T22:07:34.956Z,24.10
2019-02-14T22:10:27.053Z,24.10
2019-02-14T22:13:21.685Z,24.10
2019-02-14T22:16:15.974Z,24.10
2019-02-14T22:19:10.337Z,24.10
2019-02-14T22:22:04.868Z,24.00
2019-02-14T22:24:59.490Z,24.10
2019-02-14T22:27:53.991Z,24.10
2019-02-14T22:30:48.629Z,24.10
2019-02-14T22:33:43.148Z,24.10
2019-02-14T22:36:37.579Z,24.00
2019-02-14T22:39:32.017Z,24.00
2019-02-14T22:42:26.414Z,24.00
2019-02-14T22:45:21.244Z,24.00
2019-02-14T22:48:15.888Z,24.00
2019-02-14T22:51:10.207Z,24.00
2019-02-14T22:54:04.424Z,24.00
2019-02-14T22:56:59.007Z,24.00
2019-02-14T22:59:53.382Z,24.00
2019-02-14T23:03:13.337Z,24.00
2019-02-14T23:06:00.914Z,24.00
2019-02-14T23:09:16.493Z,23.90
2019-02-14T23:12:38.030Z,24.00
2019-02-14T23:15:48.856Z,23.90
2019-02-14T23:19:11.114Z,23.90
2019-02-14T23:22:37.800Z,23.80
2019-02-14T23:25:53.061Z,23.80
2019-02-14T23:28:54.474Z,23.80
2019-02-14T23:31:49.056Z,23.80
2019-02-14T23:34:50.959Z,23.70
2019-02-14T23:37:44.708Z,23.80
2019-02-14T23:40:39.154Z,23.80
2019-02-14T23:43:42.502Z,23.80
2019-02-14T23:46:43.056Z,23.80
2019-02-14T23:49:37.941Z,23.80
2019-02-14T23:52:32.338Z,23.80
2019-02-14T23:55:27.459Z,23.80
2019-02-14T23:58:21.934Z,23.80
